sensor_id;sensor_type;location;lat;lon;timestamp;P1;durP1;ratioP1;P2;durP2;ratioP2
1677;SDS011;6034;46.864;15.216;2023-02-11T06:58:50;3.28;;;2.72;;
1677;SDS011;6034;46.864;15.216;2023-02-11T07:01:19;4.00;;;3.00;;
1677;SDS011;6034;46.864;15.216;2023-02-11T07:03:47;5.55;;;3.20;;
1677;SDS011;6034;46.864;15.216;2023-02-11T07:06:15;3.40;;;2.80;;
1677;SDS011;6034;46.864;15.216;2023-02-11T07:08:45;3.85;;;3.25;;
1677;SDS011;6034;46.864;15.216;2023-02-11T07:11:14;6.78;;;4.75;;
1677;SDS011;6034;46.864;15.216;2023-02-11T07:13:43;7.25;;;5.20;;
1677;SDS011;6034;46.864;15.216;2023-02-11T07:16:12;9.45;;;4.68;;
1677;SDS011;6034;46.864;15.216;2023-02-11T07:18:41;7.50;;;6.05;;
1677;SDS011;6034;46.864;15.216;2023-02-11T07:21:10;7.70;;;5.10;;
1677;SDS011;6034;46.864;15.216;2023-02-11T07:23:38;13.85;;;5.78;;
1677;SDS011;6034;46.864;15.216;2023-02-11T07:26:06;6.47;;;4.60;;
1677;SDS011;6034;46.864;15.216;2023-02-11T07:28:36;12.07;;;4.97;;
1677;SDS011;6034;46.864;15.216;2023-02-11T07:31:07;8.23;;;5.75;;
1677;SDS011;6034;46.864;15.216;2023-02-11T07:33:37;8.00;;;5.28;;
1677;SDS011;6034;46.864;15.216;2023-02-11T07:36:04;8.48;;;5.32;;
1677;SDS011;6034;46.864;15.216;2023-02-11T07:38:34;7.30;;;5.32;;
1677;SDS011;6034;46.864;15.216;2023-02-11T07:41:03;7.80;;;5.60;;
1677;SDS011;6034;46.864;15.216;2023-02-11T07:43:32;7.65;;;5.70;;
1677;SDS011;6034;46.864;15.216;2023-02-11T07:46:01;11.82;;;5.85;;
1677;SDS011;6034;46.864;15.216;2023-02-11T07:48:29;7.25;;;5.35;;
1677;SDS011;6034;46.864;15.216;2023-02-11T07:51:04;8.07;;;5.25;;
1677;SDS011;6034;46.864;15.216;2023-02-11T07:53:33;7.10;;;5.22;;
1677;SDS011;6034;46.864;15.216;2023-02-11T07:56:01;7.07;;;5.57;;
1677;SDS011;6034;46.864;15.216;2023-02-11T07:58:28;21.20;;;8.70;;
1677;SDS011;6034;46.864;15.216;2023-02-11T08:00:59;10.55;;;6.75;;
1677;SDS011;6034;46.864;15.216;2023-02-11T08:03:27;10.48;;;7.22;;
1677;SDS011;6034;46.864;15.216;2023-02-11T08:05:55;13.55;;;5.88;;
1677;SDS011;6034;46.864;15.216;2023-02-11T08:08:26;10.88;;;6.00;;
1677;SDS011;6034;46.864;15.216;2023-02-11T08:10:53;8.98;;;5.63;;
1677;SDS011;6034;46.864;15.216;2023-02-11T08:13:20;11.85;;;5.47;;
1677;SDS011;6034;46.864;15.216;2023-02-11T08:15:48;11.07;;;6.65;;
1677;SDS011;6034;46.864;15.216;2023-02-11T08:18:15;8.38;;;6.07;;
1677;SDS011;6034;46.864;15.216;2023-02-11T08:20:42;11.45;;;7.28;;
1677;SDS011;6034;46.864;15.216;2023-02-11T08:23:09;10.02;;;6.25;;
1677;SDS011;6034;46.864;15.216;2023-02-11T08:25:38;12.07;;;7.65;;
1677;SDS011;6034;46.864;15.216;2023-02-11T08:28:05;11.75;;;7.90;;
1677;SDS011;6034;46.864;15.216;2023-02-11T08:30:33;9.65;;;7.10;;
1677;SDS011;6034;46.864;15.216;2023-02-11T08:33:00;10.43;;;7.20;;
1677;SDS011;6034;46.864;15.216;2023-02-11T08:35:28;9.68;;;7.38;;
1677;SDS011;6034;46.864;15.216;2023-02-11T08:37:55;10.25;;;7.00;;
1677;SDS011;6034;46.864;15.216;2023-02-11T08:40:22;10.75;;;6.07;;
1677;SDS011;6034;46.864;15.216;2023-02-11T08:42:52;12.43;;;7.20;;
1677;SDS011;6034;46.864;15.216;2023-02-11T08:45:19;11.82;;;8.00;;
1677;SDS011;6034;46.864;15.216;2023-02-11T08:47:46;11.82;;;8.10;;
1677;SDS011;6034;46.864;15.216;2023-02-11T08:50:13;12.88;;;9.18;;
1677;SDS011;6034;46.864;15.216;2023-02-11T08:52:41;16.27;;;9.20;;
1677;SDS011;6034;46.864;15.216;2023-02-11T08:55:09;14.60;;;10.10;;
1677;SDS011;6034;46.864;15.216;2023-02-11T08:57:36;13.68;;;9.73;;
1677;SDS011;6034;46.864;15.216;2023-02-11T09:00:06;17.92;;;11.40;;
1677;SDS011;6034;46.864;15.216;2023-02-11T09:02:35;12.32;;;8.73;;
1677;SDS011;6034;46.864;15.216;2023-02-11T09:05:02;12.98;;;8.38;;
1677;SDS011;6034;46.864;15.216;2023-02-11T09:07:30;12.50;;;8.27;;
1677;SDS011;6034;46.864;15.216;2023-02-11T09:09:57;9.50;;;7.78;;
1677;SDS011;6034;46.864;15.216;2023-02-11T09:12:24;10.98;;;8.38;;
1677;SDS011;6034;46.864;15.216;2023-02-11T09:14:52;11.27;;;8.48;;
1677;SDS011;6034;46.864;15.216;2023-02-11T09:17:20;11.55;;;8.88;;
1677;SDS011;6034;46.864;15.216;2023-02-11T09:19:49;10.63;;;8.00;;
1677;SDS011;6034;46.864;15.216;2023-02-11T09:22:17;9.50;;;6.97;;
1677;SDS011;6034;46.864;15.216;2023-02-11T09:24:45;10.73;;;8.38;;
1677;SDS011;6034;46.864;15.216;2023-02-11T09:27:12;15.05;;;8.93;;
1677;SDS011;6034;46.864;15.216;2023-02-11T09:29:39;9.95;;;8.10;;
1677;SDS011;6034;46.864;15.216;2023-02-11T09:32:06;10.95;;;8.25;;
1677;SDS011;6034;46.864;15.216;2023-02-11T09:34:35;14.63;;;10.10;;
1677;SDS011;6034;46.864;15.216;2023-02-11T09:37:02;11.25;;;8.98;;
1677;SDS011;6034;46.864;15.216;2023-02-11T09:39:30;13.98;;;9.68;;
1677;SDS011;6034;46.864;15.216;2023-02-11T09:42:06;16.00;;;9.38;;
1677;SDS011;6034;46.864;15.216;2023-02-11T09:44:43;18.27;;;9.93;;
1677;SDS011;6034;46.864;15.216;2023-02-11T09:47:15;17.10;;;9.18;;
1677;SDS011;6034;46.864;15.216;2023-02-11T09:49:51;14.15;;;8.90;;
1677;SDS011;6034;46.864;15.216;2023-02-11T09:52:24;15.00;;;8.85;;
1677;SDS011;6034;46.864;15.216;2023-02-11T09:54:59;16.50;;;8.30;;
1677;SDS011;6034;46.864;15.216;2023-02-11T09:57:30;10.07;;;7.43;;
1677;SDS011;6034;46.864;15.216;2023-02-11T09:59:59;12.35;;;8.20;;
1677;SDS011;6034;46.864;15.216;2023-02-11T10:02:28;13.18;;;8.35;;
1677;SDS011;6034;46.864;15.216;2023-02-11T10:05:10;17.70;;;7.90;;
1677;SDS011;6034;46.864;15.216;2023-02-11T10:07:47;38.28;;;27.85;;
1677;SDS011;6034;46.864;15.216;2023-02-11T10:10:27;23.73;;;16.15;;
1677;SDS011;6034;46.864;15.216;2023-02-11T10:13:12;14.35;;;8.38;;
1677;SDS011;6034;46.864;15.216;2023-02-11T10:15:51;14.02;;;7.50;;
1677;SDS011;6034;46.864;15.216;2023-02-11T10:18:32;15.93;;;9.73;;
1677;SDS011;6034;46.864;15.216;2023-02-11T10:21:18;12.27;;;8.73;;
1677;SDS011;6034;46.864;15.216;2023-02-11T10:23:59;14.90;;;9.02;;
1677;SDS011;6034;46.864;15.216;2023-02-11T10:26:30;11.82;;;8.57;;
1677;SDS011;6034;46.864;15.216;2023-02-11T10:28:59;15.63;;;9.73;;
1677;SDS011;6034;46.864;15.216;2023-02-11T10:31:33;14.95;;;8.50;;
1677;SDS011;6034;46.864;15.216;2023-02-11T10:34:04;12.48;;;9.10;;
1677;SDS011;6034;46.864;15.216;2023-02-11T10:36:36;14.80;;;9.50;;
1677;SDS011;6034;46.864;15.216;2023-02-11T10:39:08;13.65;;;9.00;;
1677;SDS011;6034;46.864;15.216;2023-02-11T10:41:41;16.55;;;10.13;;
1677;SDS011;6034;46.864;15.216;2023-02-11T10:44:16;18.40;;;10.32;;
1677;SDS011;6034;46.864;15.216;2023-02-11T10:46:49;16.17;;;10.27;;
1677;SDS011;6034;46.864;15.216;2023-02-11T10:49:34;16.38;;;10.10;;
1677;SDS011;6034;46.864;15.216;2023-02-11T10:52:16;17.63;;;9.90;;
1677;SDS011;6034;46.864;15.216;2023-02-11T10:57:40;15.05;;;8.98;;
1677;SDS011;6034;46.864;15.216;2023-02-11T11:00:20;16.20;;;9.25;;
1677;SDS011;6034;46.864;15.216;2023-02-11T11:02:55;15.32;;;8.30;;
1677;SDS011;6034;46.864;15.216;2023-02-11T11:05:27;18.98;;;9.20;;
1677;SDS011;6034;46.864;15.216;2023-02-11T11:07:59;17.13;;;9.23;;
1677;SDS011;6034;46.864;15.216;2023-02-11T11:10:33;13.43;;;9.70;;
1677;SDS011;6034;46.864;15.216;2023-02-11T11:13:22;16.42;;;9.82;;
1677;SDS011;6034;46.864;15.216;2023-02-11T11:18:48;15.05;;;9.70;;
1677;SDS011;6034;46.864;15.216;2023-02-11T11:21:19;14.98;;;9.52;;
1677;SDS011;6034;46.864;15.216;2023-02-11T11:23:54;15.02;;;9.32;;
1677;SDS011;6034;46.864;15.216;2023-02-11T11:26:24;10.07;;;7.47;;
1677;SDS011;6034;46.864;15.216;2023-02-11T11:28:56;9.65;;;7.53;;
1677;SDS011;6034;46.864;15.216;2023-02-11T11:31:27;10.63;;;6.95;;
1677;SDS011;6034;46.864;15.216;2023-02-11T11:33:59;8.20;;;6.25;;
1677;SDS011;6034;46.864;15.216;2023-02-11T11:36:31;8.82;;;6.05;;
1677;SDS011;6034;46.864;15.216;2023-02-11T11:39:09;12.45;;;6.28;;
1677;SDS011;6034;46.864;15.216;2023-02-11T11:41:48;9.48;;;5.75;;
1677;SDS011;6034;46.864;15.216;2023-02-11T11:44:23;10.45;;;5.93;;
1677;SDS011;6034;46.864;15.216;2023-02-11T11:47:11;7.20;;;4.88;;
1677;SDS011;6034;46.864;15.216;2023-02-11T11:49:47;8.40;;;5.28;;
1677;SDS011;6034;46.864;15.216;2023-02-11T11:52:26;9.07;;;6.68;;
1677;SDS011;6034;46.864;15.216;2023-02-11T11:55:08;12.05;;;7.25;;
1677;SDS011;6034;46.864;15.216;2023-02-11T11:57:41;9.13;;;6.00;;
1677;SDS011;6034;46.864;15.216;2023-02-11T12:00:13;8.07;;;5.90;;
1677;SDS011;6034;46.864;15.216;2023-02-11T12:05:57;9.45;;;5.75;;
1677;SDS011;6034;46.864;15.216;2023-02-11T12:08:41;9.18;;;5.30;;
1677;SDS011;6034;46.864;15.216;2023-02-11T12:11:19;6.47;;;5.05;;
1677;SDS011;6034;46.864;15.216;2023-02-11T12:13:56;8.35;;;5.93;;
1677;SDS011;6034;46.864;15.216;2023-02-11T12:16:38;10.15;;;6.32;;
1677;SDS011;6034;46.864;15.216;2023-02-11T12:19:29;8.75;;;5.72;;
1677;SDS011;6034;46.864;15.216;2023-02-11T12:22:10;10.02;;;6.07;;
1677;SDS011;6034;46.864;15.216;2023-02-11T12:24:47;8.50;;;5.07;;
1677;SDS011;6034;46.864;15.216;2023-02-11T12:27:31;5.78;;;4.80;;
1677;SDS011;6034;46.864;15.216;2023-02-11T12:30:12;7.63;;;5.57;;
1677;SDS011;6034;46.864;15.216;2023-02-11T12:32:47;7.03;;;4.70;;
1677;SDS011;6034;46.864;15.216;2023-02-11T12:35:27;8.90;;;6.03;;
1677;SDS011;6034;46.864;15.216;2023-02-11T12:38:13;7.68;;;5.22;;
1677;SDS011;6034;46.864;15.216;2023-02-11T12:40:55;8.52;;;6.05;;
1677;SDS011;6034;46.864;15.216;2023-02-11T12:43:36;8.13;;;5.55;;
1677;SDS011;6034;46.864;15.216;2023-02-11T12:46:13;13.45;;;7.35;;
1677;SDS011;6034;46.864;15.216;2023-02-11T12:48:59;7.55;;;5.43;;
1677;SDS011;6034;46.864;15.216;2023-02-11T12:51:51;7.57;;;5.55;;
1677;SDS011;6034;46.864;15.216;2023-02-11T12:54:37;6.88;;;5.80;;
1677;SDS011;6034;46.864;15.216;2023-02-11T12:57:11;9.10;;;6.57;;
1677;SDS011;6034;46.864;15.216;2023-02-11T12:59:48;7.43;;;5.63;;
1677;SDS011;6034;46.864;15.216;2023-02-11T13:02:21;9.52;;;5.40;;
1677;SDS011;6034;46.864;15.216;2023-02-11T13:04:56;20.70;;;6.30;;
1677;SDS011;6034;46.864;15.216;2023-02-11T13:07:28;11.85;;;7.45;;
1677;SDS011;6034;46.864;15.216;2023-02-11T13:10:02;8.02;;;5.60;;
1677;SDS011;6034;46.864;15.216;2023-02-11T13:12:32;10.98;;;6.35;;
1677;SDS011;6034;46.864;15.216;2023-02-11T13:15:21;7.10;;;6.40;;
1677;SDS011;6034;46.864;15.216;2023-02-11T13:17:53;7.38;;;5.38;;
1677;SDS011;6034;46.864;15.216;2023-02-11T13:20:27;7.60;;;5.85;;
1677;SDS011;6034;46.864;15.216;2023-02-11T13:23:04;8.05;;;5.82;;
1677;SDS011;6034;46.864;15.216;2023-02-11T13:25:41;8.70;;;6.20;;
1677;SDS011;6034;46.864;15.216;2023-02-11T13:31:10;9.50;;;5.50;;
1677;SDS011;6034;46.864;15.216;2023-02-11T13:33:40;7.30;;;5.43;;
1677;SDS011;6034;46.864;15.216;2023-02-11T13:36:14;9.80;;;7.15;;
1677;SDS011;6034;46.864;15.216;2023-02-11T13:38:51;8.68;;;5.63;;
1677;SDS011;6034;46.864;15.216;2023-02-11T13:41:25;14.13;;;6.95;;
1677;SDS011;6034;46.864;15.216;2023-02-11T13:43:59;10.93;;;6.80;;
1677;SDS011;6034;46.864;15.216;2023-02-11T13:49:34;7.25;;;6.20;;
1677;SDS011;6034;46.864;15.216;2023-02-11T13:52:10;14.02;;;6.40;;
1677;SDS011;6034;46.864;15.216;2023-02-11T13:54:46;9.48;;;6.15;;
1677;SDS011;6034;46.864;15.216;2023-02-11T13:57:36;10.68;;;6.35;;
1677;SDS011;6034;46.864;15.216;2023-02-11T14:03:24;9.95;;;6.78;;
1677;SDS011;6034;46.864;15.216;2023-02-11T14:06:13;10.60;;;6.47;;
1677;SDS011;6034;46.864;15.216;2023-02-11T14:09:04;8.77;;;6.18;;
1677;SDS011;6034;46.864;15.216;2023-02-11T14:11:46;9.68;;;7.50;;
1677;SDS011;6034;46.864;15.216;2023-02-11T14:14:20;14.18;;;7.35;;
1677;SDS011;6034;46.864;15.216;2023-02-11T14:19:57;11.10;;;6.60;;
1677;SDS011;6034;46.864;15.216;2023-02-11T14:22:28;10.60;;;6.68;;
1677;SDS011;6034;46.864;15.216;2023-02-11T14:25:14;8.18;;;7.15;;
1677;SDS011;6034;46.864;15.216;2023-02-11T14:27:46;9.32;;;6.95;;
1677;SDS011;6034;46.864;15.216;2023-02-11T14:30:33;9.13;;;7.57;;
1677;SDS011;6034;46.864;15.216;2023-02-11T14:33:14;8.30;;;5.93;;
1677;SDS011;6034;46.864;15.216;2023-02-11T14:36:09;8.45;;;6.15;;
1677;SDS011;6034;46.864;15.216;2023-02-11T14:38:52;8.70;;;5.90;;
1677;SDS011;6034;46.864;15.216;2023-02-11T14:41:26;12.02;;;6.65;;
1677;SDS011;6034;46.864;15.216;2023-02-11T14:43:56;8.95;;;6.32;;
1677;SDS011;6034;46.864;15.216;2023-02-11T14:46:27;9.05;;;6.22;;
1677;SDS011;6034;46.864;15.216;2023-02-11T14:48:57;10.20;;;6.60;;
1677;SDS011;6034;46.864;15.216;2023-02-11T14:51:29;11.23;;;7.38;;
1677;SDS011;6034;46.864;15.216;2023-02-11T14:54:03;13.57;;;7.25;;
1677;SDS011;6034;46.864;15.216;2023-02-11T14:56:37;14.60;;;7.45;;
1677;SDS011;6034;46.864;15.216;2023-02-11T14:59:12;11.90;;;8.63;;
1677;SDS011;6034;46.864;15.216;2023-02-11T15:01:48;9.65;;;5.75;;
1677;SDS011;6034;46.864;15.216;2023-02-11T15:04:22;10.52;;;6.25;;
1677;SDS011;6034;46.864;15.216;2023-02-11T15:06:53;10.35;;;6.35;;
1677;SDS011;6034;46.864;15.216;2023-02-11T15:09:26;10.25;;;7.38;;
1677;SDS011;6034;46.864;15.216;2023-02-11T15:11:59;8.63;;;6.65;;
1677;SDS011;6034;46.864;15.216;2023-02-11T15:14:29;11.48;;;6.90;;
1677;SDS011;6034;46.864;15.216;2023-02-11T15:17:00;10.48;;;7.10;;
1677;SDS011;6034;46.864;15.216;2023-02-11T15:19:30;11.27;;;6.32;;
1677;SDS011;6034;46.864;15.216;2023-02-11T15:22:02;8.82;;;6.60;;
1677;SDS011;6034;46.864;15.216;2023-02-11T15:24:32;9.70;;;7.00;;
1677;SDS011;6034;46.864;15.216;2023-02-11T15:27:08;12.27;;;7.65;;
1677;SDS011;6034;46.864;15.216;2023-02-11T15:29:39;11.82;;;8.50;;
1677;SDS011;6034;46.864;15.216;2023-02-11T15:32:12;9.90;;;8.50;;
1677;SDS011;6034;46.864;15.216;2023-02-11T15:34:42;16.17;;;11.82;;
1677;SDS011;6034;46.864;15.216;2023-02-11T15:37:13;15.68;;;11.60;;
1677;SDS011;6034;46.864;15.216;2023-02-11T15:39:46;9.57;;;7.22;;
1677;SDS011;6034;46.864;15.216;2023-02-11T15:42:15;12.55;;;9.00;;
1677;SDS011;6034;46.864;15.216;2023-02-11T15:44:45;10.50;;;8.00;;
1677;SDS011;6034;46.864;15.216;2023-02-11T15:47:16;11.68;;;6.60;;
1677;SDS011;6034;46.864;15.216;2023-02-11T15:52:22;9.70;;;7.25;;
1677;SDS011;6034;46.864;15.216;2023-02-11T15:54:52;9.38;;;7.00;;
1677;SDS011;6034;46.864;15.216;2023-02-11T15:57:23;11.38;;;8.05;;
1677;SDS011;6034;46.864;15.216;2023-02-11T15:59:51;11.93;;;8.85;;
1677;SDS011;6034;46.864;15.216;2023-02-11T16:02:24;14.10;;;9.50;;
1677;SDS011;6034;46.864;15.216;2023-02-11T16:04:56;10.40;;;7.60;;
1677;SDS011;6034;46.864;15.216;2023-02-11T16:07:40;11.63;;;7.68;;
1677;SDS011;6034;46.864;15.216;2023-02-11T16:10:16;10.52;;;8.63;;
1677;SDS011;6034;46.864;15.216;2023-02-11T16:12:51;10.88;;;7.70;;
1677;SDS011;6034;46.864;15.216;2023-02-11T16:20:59;11.98;;;8.20;;
1677;SDS011;6034;46.864;15.216;2023-02-11T16:23:31;12.07;;;8.73;;
1677;SDS011;6034;46.864;15.216;2023-02-11T16:26:02;11.32;;;7.70;;
1677;SDS011;6034;46.864;15.216;2023-02-11T16:28:33;14.40;;;7.70;;
1677;SDS011;6034;46.864;15.216;2023-02-11T16:31:03;13.60;;;8.90;;
1677;SDS011;6034;46.864;15.216;2023-02-11T16:33:31;12.95;;;8.60;;
1677;SDS011;6034;46.864;15.216;2023-02-11T16:35:59;9.95;;;7.85;;
1677;SDS011;6034;46.864;15.216;2023-02-11T16:38:34;12.23;;;8.85;;
1677;SDS011;6034;46.864;15.216;2023-02-11T16:41:02;11.38;;;8.40;;
1677;SDS011;6034;46.864;15.216;2023-02-11T16:43:31;11.15;;;6.80;;
1677;SDS011;6034;46.864;15.216;2023-02-11T16:45:59;10.95;;;6.70;;
1677;SDS011;6034;46.864;15.216;2023-02-11T16:48:28;9.25;;;6.25;;
1677;SDS011;6034;46.864;15.216;2023-02-11T16:50:58;9.00;;;6.00;;
1677;SDS011;6034;46.864;15.216;2023-02-11T16:53:26;10.18;;;6.55;;
1677;SDS011;6034;46.864;15.216;2023-02-11T16:55:55;8.90;;;7.22;;
1677;SDS011;6034;46.864;15.216;2023-02-11T16:58:23;11.70;;;7.60;;
1677;SDS011;6034;46.864;15.216;2023-02-11T17:00:53;13.90;;;9.90;;
1677;SDS011;6034;46.864;15.216;2023-02-11T17:03:22;7.78;;;6.50;;
1677;SDS011;6034;46.864;15.216;2023-02-11T17:05:53;5.15;;;3.53;;
1677;SDS011;6034;46.864;15.216;2023-02-11T17:08:21;8.07;;;4.28;;
1677;SDS011;6034;46.864;15.216;2023-02-11T17:10:50;6.03;;;3.55;;
1677;SDS011;6034;46.864;15.216;2023-02-11T17:13:20;6.40;;;4.85;;
1677;SDS011;6034;46.864;15.216;2023-02-11T17:15:48;7.75;;;5.50;;
1677;SDS011;6034;46.864;15.216;2023-02-11T17:18:16;12.23;;;5.75;;
1677;SDS011;6034;46.864;15.216;2023-02-11T17:20:44;11.73;;;6.13;;
1677;SDS011;6034;46.864;15.216;2023-02-11T17:23:12;9.93;;;6.38;;
1677;SDS011;6034;46.864;15.216;2023-02-11T17:25:40;22.05;;;18.20;;
1677;SDS011;6034;46.864;15.216;2023-02-11T17:28:09;12.52;;;8.73;;
1677;SDS011;6034;46.864;15.216;2023-02-11T17:30:40;10.43;;;7.68;;
1677;SDS011;6034;46.864;15.216;2023-02-11T17:33:08;8.93;;;6.95;;
1677;SDS011;6034;46.864;15.216;2023-02-11T17:35:37;7.70;;;5.55;;
1677;SDS011;6034;46.864;15.216;2023-02-11T17:38:07;9.30;;;7.35;;
1677;SDS011;6034;46.864;15.216;2023-02-11T17:40:36;10.98;;;6.10;;
1677;SDS011;6034;46.864;15.216;2023-02-11T17:43:04;7.50;;;5.95;;
1677;SDS011;6034;46.864;15.216;2023-02-11T17:45:32;10.73;;;8.70;;
1677;SDS011;6034;46.864;15.216;2023-02-11T17:48:06;9.35;;;6.03;;
1677;SDS011;6034;46.864;15.216;2023-02-11T17:50:34;6.13;;;4.35;;
1677;SDS011;6034;46.864;15.216;2023-02-11T17:53:03;7.03;;;3.60;;
1677;SDS011;6034;46.864;15.216;2023-02-11T17:55:31;5.10;;;3.55;;
1677;SDS011;6034;46.864;15.216;2023-02-11T17:57:59;4.90;;;3.28;;
1677;SDS011;6034;46.864;15.216;2023-02-11T18:00:30;4.70;;;3.38;;
1677;SDS011;6034;46.864;15.216;2023-02-11T18:02:59;5.50;;;3.97;;
1677;SDS011;6034;46.864;15.216;2023-02-11T18:05:32;5.30;;;3.40;;
1677;SDS011;6034;46.864;15.216;2023-02-11T18:08:00;5.63;;;3.65;;
1677;SDS011;6034;46.864;15.216;2023-02-11T18:10:29;5.32;;;3.20;;
1677;SDS011;6034;46.864;15.216;2023-02-11T18:12:57;7.95;;;5.63;;
1677;SDS011;6034;46.864;15.216;2023-02-11T18:15:26;10.85;;;6.75;;
1677;SDS011;6034;46.864;15.216;2023-02-11T18:17:55;9.35;;;6.65;;
1677;SDS011;6034;46.864;15.216;2023-02-11T18:20:24;7.28;;;6.57;;
1677;SDS011;6034;46.864;15.216;2023-02-11T18:22:53;10.50;;;7.20;;
1677;SDS011;6034;46.864;15.216;2023-02-11T18:25:22;6.95;;;5.00;;
1677;SDS011;6034;46.864;15.216;2023-02-11T18:27:50;5.88;;;3.72;;
1677;SDS011;6034;46.864;15.216;2023-02-11T18:30:21;6.72;;;4.90;;
1677;SDS011;6034;46.864;15.216;2023-02-11T18:32:52;8.30;;;5.93;;
1677;SDS011;6034;46.864;15.216;2023-02-11T18:35:22;9.98;;;6.47;;
1677;SDS011;6034;46.864;15.216;2023-02-11T18:37:50;10.05;;;6.43;;
1677;SDS011;6034;46.864;15.216;2023-02-11T18:40:20;9.40;;;5.97;;
1677;SDS011;6034;46.864;15.216;2023-02-11T18:42:49;7.72;;;5.18;;
1677;SDS011;6034;46.864;15.216;2023-02-11T18:45:18;7.88;;;5.68;;
1677;SDS011;6034;46.864;15.216;2023-02-11T18:47:46;6.55;;;4.93;;
1677;SDS011;6034;46.864;15.216;2023-02-11T18:50:16;6.88;;;5.03;;
1677;SDS011;6034;46.864;15.216;2023-02-11T18:52:46;11.20;;;8.45;;
1677;SDS011;6034;46.864;15.216;2023-02-11T18:55:17;7.93;;;6.38;;
1677;SDS011;6034;46.864;15.216;2023-02-11T18:57:50;9.70;;;6.55;;
1677;SDS011;6034;46.864;15.216;2023-02-11T19:00:22;10.30;;;6.95;;
1677;SDS011;6034;46.864;15.216;2023-02-11T19:02:51;8.95;;;7.00;;
1677;SDS011;6034;46.864;15.216;2023-02-11T19:05:20;11.20;;;7.85;;
1677;SDS011;6034;46.864;15.216;2023-02-11T19:07:52;12.30;;;8.50;;
1677;SDS011;6034;46.864;15.216;2023-02-11T19:10:23;13.57;;;9.00;;
1677;SDS011;6034;46.864;15.216;2023-02-11T19:12:55;9.43;;;7.18;;
1677;SDS011;6034;46.864;15.216;2023-02-11T19:15:23;7.15;;;5.63;;
1677;SDS011;6034;46.864;15.216;2023-02-11T19:17:54;10.45;;;7.25;;
1677;SDS011;6034;46.864;15.216;2023-02-11T19:20:22;8.38;;;6.85;;
1677;SDS011;6034;46.864;15.216;2023-02-11T19:22:50;10.38;;;7.13;;
1677;SDS011;6034;46.864;15.216;2023-02-11T19:25:18;8.43;;;6.50;;
1677;SDS011;6034;46.864;15.216;2023-02-11T19:27:49;6.63;;;5.40;;
1677;SDS011;6034;46.864;15.216;2023-02-11T19:30:17;9.13;;;7.00;;
1677;SDS011;6034;46.864;15.216;2023-02-11T19:32:46;8.52;;;7.00;;
1677;SDS011;6034;46.864;15.216;2023-02-11T19:35:17;11.05;;;7.00;;
1677;SDS011;6034;46.864;15.216;2023-02-11T19:37:46;14.55;;;8.50;;
1677;SDS011;6034;46.864;15.216;2023-02-11T19:40:14;8.35;;;6.13;;
1677;SDS011;6034;46.864;15.216;2023-02-11T19:42:44;6.95;;;6.15;;
1677;SDS011;6034;46.864;15.216;2023-02-11T19:45:14;11.23;;;7.05;;
1677;SDS011;6034;46.864;15.216;2023-02-11T19:47:41;8.27;;;5.70;;
1677;SDS011;6034;46.864;15.216;2023-02-11T19:50:11;8.43;;;6.10;;
1677;SDS011;6034;46.864;15.216;2023-02-11T19:52:39;8.80;;;5.65;;
1677;SDS011;6034;46.864;15.216;2023-02-11T19:55:08;6.32;;;4.05;;
1677;SDS011;6034;46.864;15.216;2023-02-11T19:57:38;5.00;;;2.38;;
1677;SDS011;6034;46.864;15.216;2023-02-11T20:00:12;6.05;;;3.65;;
1677;SDS011;6034;46.864;15.216;2023-02-11T20:02:48;5.07;;;3.75;;
1677;SDS011;6034;46.864;15.216;2023-02-11T20:05:17;6.28;;;3.80;;
1677;SDS011;6034;46.864;15.216;2023-02-11T20:07:46;3.88;;;3.25;;
1677;SDS011;6034;46.864;15.216;2023-02-11T20:10:14;5.35;;;2.78;;
1677;SDS011;6034;46.864;15.216;2023-02-11T20:12:42;6.00;;;3.33;;
1677;SDS011;6034;46.864;15.216;2023-02-11T20:15:11;5.05;;;3.58;;
1677;SDS011;6034;46.864;15.216;2023-02-11T20:17:40;4.30;;;2.95;;
1677;SDS011;6034;46.864;15.216;2023-02-11T20:20:12;4.90;;;3.13;;
1677;SDS011;6034;46.864;15.216;2023-02-11T20:22:42;4.45;;;3.08;;
1677;SDS011;6034;46.864;15.216;2023-02-11T20:25:11;4.43;;;2.92;;
1677;SDS011;6034;46.864;15.216;2023-02-11T20:27:39;5.82;;;2.65;;
1677;SDS011;6034;46.864;15.216;2023-02-11T20:30:08;4.57;;;3.17;;
1677;SDS011;6034;46.864;15.216;2023-02-11T20:32:37;3.28;;;2.00;;
1677;SDS011;6034;46.864;15.216;2023-02-11T20:35:06;2.22;;;1.35;;
1677;SDS011;6034;46.864;15.216;2023-02-11T20:37:38;1.70;;;0.93;;
1677;SDS011;6034;46.864;15.216;2023-02-11T20:40:09;2.38;;;1.25;;
1677;SDS011;6034;46.864;15.216;2023-02-11T20:42:40;2.17;;;1.40;;
1677;SDS011;6034;46.864;15.216;2023-02-11T20:45:08;2.70;;;1.83;;
1677;SDS011;6034;46.864;15.216;2023-02-11T20:47:37;3.13;;;1.88;;
1677;SDS011;6034;46.864;15.216;2023-02-11T20:50:07;2.60;;;1.80;;
1677;SDS011;6034;46.864;15.216;2023-02-11T20:52:38;4.20;;;2.97;;
1677;SDS011;6034;46.864;15.216;2023-02-11T20:55:07;3.05;;;1.85;;
1677;SDS011;6034;46.864;15.216;2023-02-11T20:57:35;2.30;;;1.50;;
1677;SDS011;6034;46.864;15.216;2023-02-11T21:00:05;2.75;;;1.80;;
1677;SDS011;6034;46.864;15.216;2023-02-11T21:02:37;1.92;;;1.20;;
1677;SDS011;6034;46.864;15.216;2023-02-11T21:05:06;4.80;;;2.30;;
1677;SDS011;6034;46.864;15.216;2023-02-11T21:07:36;3.17;;;1.80;;
1677;SDS011;6034;46.864;15.216;2023-02-11T21:10:05;3.47;;;2.20;;
1677;SDS011;6034;46.864;15.216;2023-02-11T21:12:33;2.35;;;1.63;;
1677;SDS011;6034;46.864;15.216;2023-02-11T21:15:02;2.05;;;1.25;;
1677;SDS011;6034;46.864;15.216;2023-02-11T21:17:31;2.50;;;1.67;;
1677;SDS011;6034;46.864;15.216;2023-02-11T21:20:00;2.42;;;1.65;;
1677;SDS011;6034;46.864;15.216;2023-02-11T21:22:28;3.85;;;2.00;;
1677;SDS011;6034;46.864;15.216;2023-02-11T21:24:58;2.05;;;1.40;;
1677;SDS011;6034;46.864;15.216;2023-02-11T21:27:27;2.55;;;1.50;;
1677;SDS011;6034;46.864;15.216;2023-02-11T21:29:58;2.90;;;1.55;;
1677;SDS011;6034;46.864;15.216;2023-02-11T21:32:26;2.25;;;1.55;;
1677;SDS011;6034;46.864;15.216;2023-02-11T21:34:56;3.08;;;1.88;;
1677;SDS011;6034;46.864;15.216;2023-02-11T21:37:27;4.05;;;1.83;;
1677;SDS011;6034;46.864;15.216;2023-02-11T21:39:55;2.65;;;2.17;;
1677;SDS011;6034;46.864;15.216;2023-02-11T21:42:25;4.05;;;3.10;;
1677;SDS011;6034;46.864;15.216;2023-02-11T21:44:53;3.20;;;2.00;;
1677;SDS011;6034;46.864;15.216;2023-02-11T21:47:21;4.13;;;1.50;;
1677;SDS011;6034;46.864;15.216;2023-02-11T21:49:51;2.08;;;1.42;;
1677;SDS011;6034;46.864;15.216;2023-02-11T21:52:19;1.85;;;1.35;;
1677;SDS011;6034;46.864;15.216;2023-02-11T21:54:48;2.75;;;1.70;;
1677;SDS011;6034;46.864;15.216;2023-02-11T21:57:21;2.60;;;1.45;;
1677;SDS011;6034;46.864;15.216;2023-02-11T21:59:48;3.17;;;1.80;;
1677;SDS011;6034;46.864;15.216;2023-02-11T22:02:16;3.95;;;2.03;;
1677;SDS011;6034;46.864;15.216;2023-02-11T22:04:44;3.30;;;2.20;;
1677;SDS011;6034;46.864;15.216;2023-02-11T22:07:13;3.45;;;2.83;;
1677;SDS011;6034;46.864;15.216;2023-02-11T22:09:41;5.10;;;3.30;;
1677;SDS011;6034;46.864;15.216;2023-02-11T22:12:09;2.75;;;1.95;;
1677;SDS011;6034;46.864;15.216;2023-02-11T22:14:38;2.75;;;1.63;;
1677;SDS011;6034;46.864;15.216;2023-02-11T22:17:06;4.03;;;2.67;;
1677;SDS011;6034;46.864;15.216;2023-02-11T22:19:34;5.28;;;2.67;;
1677;SDS011;6034;46.864;15.216;2023-02-11T22:22:01;4.40;;;2.40;;
1677;SDS011;6034;46.864;15.216;2023-02-11T22:24:29;3.92;;;2.53;;
1677;SDS011;6034;46.864;15.216;2023-02-11T22:26:57;5.47;;;2.92;;
1677;SDS011;6034;46.864;15.216;2023-02-11T22:29:24;5.05;;;2.28;;
1677;SDS011;6034;46.864;15.216;2023-02-11T22:31:53;3.70;;;2.13;;
1677;SDS011;6034;46.864;15.216;2023-02-11T22:34:20;3.17;;;1.88;;
1677;SDS011;6034;46.864;15.216;2023-02-11T22:36:47;5.82;;;2.67;;
1677;SDS011;6034;46.864;15.216;2023-02-11T22:39:15;6.60;;;3.20;;
1677;SDS011;6034;46.864;15.216;2023-02-11T22:41:43;3.22;;;1.83;;
1677;SDS011;6034;46.864;15.216;2023-02-11T22:44:12;4.75;;;2.90;;
1677;SDS011;6034;46.864;15.216;2023-02-11T22:46:40;4.65;;;3.15;;
1677;SDS011;6034;46.864;15.216;2023-02-11T22:49:10;4.35;;;3.08;;